createdAt,value
2018-11-26T00:00:44.346Z,20.50
2018-11-26T00:05:47.709Z,19.55
2018-11-26T00:11:05.986Z,18.85
2018-11-26T00:16:09.273Z,18.62
2018-11-26T00:21:17.519Z,18.50
2018-11-26T00:26:21.007Z,17.10
2018-11-26T00:31:24.308Z,17.45
2018-11-26T00:36:27.643Z,17.17
2018-11-26T00:41:30.961Z,17.82
2018-11-26T00:46:34.290Z,18.87
2018-11-26T00:51:37.782Z,16.77
2018-11-26T00:56:41.137Z,16.25
2018-11-26T01:01:44.710Z,16.62
2018-11-26T01:06:48.252Z,17.15
2018-11-26T01:11:51.769Z,16.27
2018-11-26T01:16:56.230Z,17.85
2018-11-26T01:21:59.617Z,16.82
2018-11-26T01:32:33.878Z,18.52
2018-11-26T01:37:37.409Z,17.80
2018-11-26T01:42:42.357Z,17.80
2018-11-26T01:47:49.283Z,18.10
2018-11-26T01:52:52.941Z,18.90
2018-11-26T01:57:57.186Z,19.92
2018-11-26T02:03:00.730Z,18.05
2018-11-26T02:08:04.170Z,16.90
2018-11-26T02:13:07.618Z,18.60
2018-11-26T02:18:11.538Z,17.92
2018-11-26T02:23:14.969Z,18.95
2018-11-26T02:28:18.495Z,18.42
2018-11-26T02:33:21.951Z,18.80
2018-11-26T02:38:25.421Z,18.42
2018-11-26T02:43:30.591Z,19.10
2018-11-26T02:48:35.976Z,18.50
2018-11-26T02:53:39.355Z,18.27
2018-11-26T02:58:43.847Z,17.35
2018-11-26T03:03:47.251Z,18.32
2018-11-26T03:08:50.669Z,17.13
2018-11-26T03:13:54.136Z,17.93
2018-11-26T03:18:57.663Z,19.00
2018-11-26T03:24:01.220Z,17.15
2018-11-26T03:29:04.900Z,18.50
2018-11-26T03:34:08.268Z,18.00
2018-11-26T03:39:12.558Z,18.00
2018-11-26T03:44:15.850Z,16.20
2018-11-26T03:49:19.366Z,19.23
2018-11-26T03:54:22.759Z,17.80
2018-11-26T03:59:27.613Z,18.30
2018-11-26T04:04:31.270Z,17.30
2018-11-26T04:09:34.795Z,17.50
2018-11-26T04:14:38.247Z,18.60
2018-11-26T04:19:41.667Z,18.52
2018-11-26T04:24:45.162Z,17.77
2018-11-26T04:29:48.593Z,17.90
2018-11-26T04:34:53.404Z,18.65
2018-11-26T04:39:56.809Z,20.70
2018-11-26T04:56:05.897Z,19.92
2018-11-26T05:01:13.059Z,21.23
2018-11-26T05:06:16.394Z,21.30
2018-11-26T05:11:20.472Z,21.90
2018-11-26T05:16:23.886Z,22.75
2018-11-26T05:21:28.445Z,23.62
2018-11-26T05:26:31.999Z,21.97
2018-11-26T05:31:35.399Z,22.57
2018-11-26T05:36:39.378Z,21.70
2018-11-26T05:41:42.806Z,23.12
2018-11-26T05:46:46.135Z,23.60
2018-11-26T05:51:50.284Z,25.10
2018-11-26T05:56:54.434Z,25.33
2018-11-26T06:01:58.895Z,24.52
2018-11-26T06:07:02.360Z,24.47
2018-11-26T06:12:05.819Z,24.87
2018-11-26T06:17:09.706Z,26.23
2018-11-26T06:22:13.204Z,28.47
2018-11-26T06:27:17.541Z,28.63
2018-11-26T06:38:02.453Z,26.77
2018-11-26T06:43:07.213Z,27.25
2018-11-26T06:53:59.896Z,26.70
2018-11-26T06:59:04.283Z,24.43
2018-11-26T07:04:08.757Z,25.17
2018-11-26T07:09:12.290Z,24.65
2018-11-26T07:14:16.929Z,22.37
2018-11-26T07:19:20.356Z,24.18
2018-11-26T07:24:23.885Z,22.50
2018-11-26T07:29:30.827Z,22.15
2018-11-26T07:34:34.900Z,23.40
2018-11-26T07:39:40.785Z,21.50
2018-11-26T07:44:44.244Z,20.97
2018-11-26T07:49:48.071Z,19.92
2018-11-26T07:54:52.032Z,20.02
2018-11-26T07:59:55.528Z,20.10
2018-11-26T08:04:58.997Z,19.30
2018-11-26T08:10:02.452Z,19.02
2018-11-26T08:15:12.316Z,19.77
2018-11-26T08:20:15.722Z,19.50
2018-11-26T08:25:20.193Z,19.53
2018-11-26T08:30:27.821Z,20.80
2018-11-26T08:35:33.545Z,19.90
2018-11-26T08:40:42.866Z,20.40
2018-11-26T08:45:54.478Z,16.20
2018-11-26T08:50:59.939Z,16.23
2018-11-26T08:56:03.368Z,16.35
2018-11-26T09:01:10.948Z,17.52
2018-11-26T09:06:14.361Z,16.75
2018-11-26T09:11:19.906Z,17.12
2018-11-26T09:16:23.256Z,16.63
2018-11-26T09:21:26.595Z,16.80
2018-11-26T09:26:30.085Z,16.30
2018-11-26T09:31:33.929Z,16.93
2018-11-26T09:36:37.304Z,16.12
2018-11-26T09:41:42.427Z,16.85
2018-11-26T09:46:47.153Z,16.10
2018-11-26T09:51:50.528Z,16.87
2018-11-26T09:56:53.862Z,15.80
2018-11-26T10:01:57.262Z,15.65
2018-11-26T10:07:00.628Z,14.68
2018-11-26T10:12:10.963Z,16.00
2018-11-26T10:17:14.444Z,14.47
2018-11-26T10:22:18.237Z,14.30
2018-11-26T10:27:22.498Z,14.87
2018-11-26T10:32:25.865Z,14.03
2018-11-26T10:42:33.479Z,14.30
2018-11-26T10:47:36.978Z,12.73
2018-11-26T10:52:43.638Z,13.40
2018-11-26T10:57:47.042Z,12.05
2018-11-26T11:02:51.051Z,12.88
2018-11-26T11:07:54.466Z,11.83
2018-11-26T11:12:58.021Z,12.00
2018-11-26T11:18:01.521Z,13.70
2018-11-26T11:23:04.892Z,12.20
2018-11-26T11:28:08.469Z,11.70
2018-11-26T11:38:14.574Z,11.83
2018-11-26T11:49:12.073Z,11.20
2018-11-26T11:54:15.581Z,11.97
2018-11-26T11:59:19.815Z,12.45
2018-11-26T12:04:28.392Z,11.80
2018-11-26T12:09:36.160Z,11.85
2018-11-26T12:14:49.272Z,11.97
2018-11-26T12:19:54.185Z,12.20
2018-11-26T12:25:05.595Z,12.63
2018-11-26T12:30:14.143Z,12.65
2018-11-26T12:36:22.890Z,12.18
2018-11-26T12:41:26.437Z,11.67
2018-11-26T12:46:30.005Z,12.17
2018-11-26T12:51:33.548Z,12.60
2018-11-26T12:56:37.013Z,12.23
2018-11-26T13:01:40.868Z,12.78
2018-11-26T13:06:47.637Z,13.18
2018-11-26T13:11:51.349Z,12.85
2018-11-26T13:16:55.263Z,14.40
2018-11-26T13:21:59.486Z,14.13
2018-11-26T13:27:03.631Z,13.75
2018-11-26T13:32:08.070Z,12.60
2018-11-26T13:37:11.694Z,13.93
2018-11-26T13:42:18.329Z,14.43
2018-11-26T13:47:21.787Z,13.90
2018-11-26T13:52:25.368Z,14.90
2018-11-26T13:57:31.433Z,14.00
2018-11-26T14:02:35.772Z,14.10
2018-11-26T14:23:56.081Z,14.47
2018-11-26T14:29:02.284Z,14.60
2018-11-26T14:34:06.956Z,13.68
2018-11-26T14:39:24.397Z,13.70
2018-11-26T14:44:31.254Z,13.40
2018-11-26T14:49:35.092Z,12.40
2018-11-26T14:54:39.204Z,12.28
2018-11-26T15:05:29.493Z,13.20
2018-11-26T15:10:49.400Z,13.73
2018-11-26T15:16:13.344Z,13.58
2018-11-26T15:21:17.370Z,12.63
2018-11-26T15:26:21.624Z,12.90
2018-11-26T15:31:26.709Z,14.80
2018-11-26T15:36:30.251Z,15.10
2018-11-26T15:41:33.575Z,13.50
2018-11-26T15:46:38.507Z,14.25
2018-11-26T15:51:41.748Z,15.20
2018-11-26T16:02:13.961Z,15.45
2018-11-26T16:07:17.250Z,16.27
2018-11-26T16:12:23.772Z,16.32
2018-11-26T16:17:27.120Z,16.57
2018-11-26T16:22:30.539Z,18.05
2018-11-26T16:27:33.858Z,18.52
2018-11-26T16:32:37.162Z,17.48
2018-11-26T16:37:40.462Z,18.07
2018-11-26T16:42:43.828Z,17.77
2018-11-26T16:53:23.888Z,19.17
2018-11-26T16:58:27.301Z,19.50
2018-11-26T17:03:30.614Z,19.40
2018-11-26T17:08:33.950Z,19.13
2018-11-26T17:13:37.283Z,19.40
2018-11-26T17:18:40.759Z,18.47
2018-11-26T17:23:44.164Z,19.53
2018-11-26T17:28:52.756Z,19.37
2018-11-26T17:33:56.200Z,18.98
2018-11-26T17:39:00.292Z,18.70
2018-11-26T17:44:04.264Z,19.23
2018-11-26T17:49:08.764Z,19.00
2018-11-26T17:54:12.104Z,19.37
2018-11-26T17:59:15.421Z,17.43
2018-11-26T18:04:18.891Z,20.37
2018-11-26T18:09:27.255Z,20.37
2018-11-26T18:14:30.634Z,18.67
2018-11-26T18:19:35.002Z,19.90
2018-11-26T18:24:38.660Z,18.87
2018-11-26T18:29:42.069Z,19.23
2018-11-26T18:34:45.569Z,18.70
2018-11-26T18:39:48.948Z,20.82
2018-11-26T18:44:52.418Z,19.98
2018-11-26T18:50:14.387Z,21.45
2018-11-26T18:55:19.444Z,22.40
2018-11-26T19:00:24.292Z,22.13
2018-11-26T19:05:27.719Z,22.10
2018-11-26T19:10:33.556Z,22.57
2018-11-26T19:15:38.348Z,21.85
2018-11-26T19:20:41.736Z,23.00
2018-11-26T19:25:45.727Z,22.57
2018-11-26T19:30:49.090Z,24.63
2018-11-26T19:35:52.419Z,24.82
2018-11-26T19:40:55.778Z,23.22
2018-11-26T19:45:59.195Z,21.67
2018-11-26T19:51:02.614Z,23.80
2018-11-26T19:56:06.123Z,22.73
2018-11-26T20:01:09.491Z,21.02
2018-11-26T20:06:22.211Z,22.52
2018-11-26T20:11:32.961Z,21.30
2018-11-26T20:21:54.387Z,19.43
2018-11-26T20:27:00.852Z,20.20
2018-11-26T20:32:05.676Z,19.85
2018-11-26T20:37:09.190Z,20.90
2018-11-26T20:42:14.435Z,20.52
2018-11-26T20:47:18.710Z,19.57
2018-11-26T20:52:24.198Z,19.25
2018-11-26T20:57:27.814Z,18.77
2018-11-26T21:02:31.293Z,19.50
2018-11-26T21:07:36.140Z,19.42
2018-11-26T21:12:44.341Z,17.00
2018-11-26T21:17:50.685Z,16.95
2018-11-26T21:22:54.584Z,17.77
2018-11-26T21:27:58.191Z,17.60
2018-11-26T21:33:01.854Z,17.20
2018-11-26T21:38:06.292Z,16.62
2018-11-26T21:43:11.052Z,16.87
2018-11-26T21:53:43.038Z,14.95
